To NAV CANADA Home Page Login to a new session Search on AWWS site Disclaimer Vers la page française équivalente Tips FAQ What's new on the site To the Forecasts and Observations / NOTAM section To "File a Flight Plan" website Publications and other links Update of the User's profile FIC Telephone Numbers My Weather Data Folder Route Weather Data Regional Weather Data Local Weather Data To the Forecasts and Observations / NOTAM section
Request Generated 10/19/2018 at 16:05:59 UTC . Weather information available at that time is displayed.

METAR/TAF

ULUKHAKTOK/HOLMAN/NT    

LWIS CYHI 191500Z AUTO 05008KT M10/M12 A3020=
LWIS CYHI 191400Z AUTO 04007KT M11/M13 A3021=
LWIS CYHI 191300Z AUTO 03006KT M10/M11 A3020=

TAF CYHI 191538Z 1916/1924 FCST NOT AVBL DUE NO OBS
RMK NXT FCST BY 191900Z=
Your time UTC time
Weather data provided by Environment Canada and NAV CANADA